createdAt,value
2022-09-07T00:02:15.424Z,3.80
2022-09-07T00:05:00.714Z,6.32
2022-09-07T00:07:46.170Z,5.28
2022-09-07T00:10:31.672Z,5.20
2022-09-07T00:13:16.946Z,2.90
2022-09-07T00:16:08.347Z,4.32
2022-09-07T00:19:00.119Z,3.95
2022-09-07T00:21:46.019Z,3.78
2022-09-07T00:24:31.219Z,8.52
2022-09-07T00:27:16.777Z,3.58
2022-09-07T00:30:02.141Z,4.38
2022-09-07T00:32:47.513Z,4.35
2022-09-07T00:35:32.857Z,7.38
2022-09-07T00:38:18.450Z,4.82
2022-09-07T00:41:04.295Z,2.70
2022-09-07T00:43:56.010Z,3.78
2022-09-07T00:46:41.460Z,3.05
2022-09-07T00:49:27.167Z,3.88
2022-09-07T00:52:14.245Z,3.45
2022-09-07T00:55:06.305Z,3.58
2022-09-07T00:57:55.744Z,5.22
2022-09-07T01:00:44.667Z,6.68
2022-09-07T01:03:34.972Z,3.75
2022-09-07T01:06:26.580Z,6.45
2022-09-07T01:09:16.188Z,3.83
2022-09-07T01:12:02.789Z,4.88
2022-09-07T01:14:51.789Z,4.45
2022-09-07T01:18:07.608Z,3.92
2022-09-07T01:21:24.973Z,4.05
2022-09-07T01:24:24.617Z,3.25
2022-09-07T01:27:19.431Z,6.90
2022-09-07T01:30:10.661Z,4.78
2022-09-07T01:33:06.669Z,4.57
2022-09-07T01:36:03.872Z,3.78
2022-09-07T01:39:02.113Z,4.18
2022-09-07T01:41:54.667Z,4.32
2022-09-07T01:45:01.408Z,4.32
2022-09-07T01:47:52.087Z,4.00
2022-09-07T01:50:44.797Z,4.88
2022-09-07T01:53:30.081Z,5.15
2022-09-07T01:56:32.480Z,8.32
2022-09-07T01:59:21.727Z,3.10
2022-09-07T02:02:16.676Z,7.72
2022-09-07T02:05:09.413Z,4.35
2022-09-07T02:08:04.735Z,5.47
2022-09-07T02:10:55.527Z,5.70
2022-09-07T02:13:56.139Z,4.03
2022-09-07T02:16:51.925Z,3.90
2022-09-07T02:19:42.765Z,3.67
2022-09-07T02:22:32.018Z,4.15
2022-09-07T02:25:28.507Z,3.45
2022-09-07T02:28:22.304Z,5.18
2022-09-07T02:31:08.345Z,4.07
2022-09-07T02:33:53.602Z,5.90
2022-09-07T02:36:44.383Z,4.15
2022-09-07T02:39:30.102Z,4.72
2022-09-07T02:42:15.190Z,5.75
2022-09-07T02:45:04.440Z,4.28
2022-09-07T02:47:50.157Z,4.85
2022-09-07T02:50:44.967Z,5.60
2022-09-07T02:53:58.758Z,4.32
2022-09-07T02:57:14.098Z,4.32
2022-09-07T03:00:15.380Z,5.25
2022-09-07T03:03:11.011Z,6.93
2022-09-07T03:06:03.538Z,4.75
2022-09-07T03:08:53.043Z,4.72
2022-09-07T03:11:39.004Z,6.88
2022-09-07T03:14:26.328Z,8.52
2022-09-07T03:17:13.064Z,6.47
2022-09-07T03:19:58.959Z,4.97
2022-09-07T03:22:46.667Z,3.53
2022-09-07T03:25:32.352Z,5.13
2022-09-07T03:28:17.653Z,3.70
2022-09-07T03:31:03.175Z,4.55
2022-09-07T03:33:48.760Z,3.78
2022-09-07T03:36:35.042Z,6.93
2022-09-07T03:39:23.695Z,4.55
2022-09-07T03:42:09.256Z,11.15
2022-09-07T03:44:54.425Z,4.78
2022-09-07T03:47:40.127Z,3.45
2022-09-07T03:50:25.651Z,4.40
2022-09-07T03:53:11.105Z,5.20
2022-09-07T03:56:02.130Z,16.58
2022-09-07T03:58:48.785Z,5.93
2022-09-07T04:01:34.678Z,4.82
2022-09-07T04:04:20.186Z,8.45
2022-09-07T04:07:06.763Z,4.90
2022-09-07T04:09:52.497Z,4.37
2022-09-07T04:12:37.946Z,7.60
2022-09-07T04:15:23.722Z,5.45
2022-09-07T04:18:09.011Z,4.75
2022-09-07T04:20:59.094Z,5.20
2022-09-07T04:23:45.503Z,5.43
2022-09-07T04:26:33.689Z,9.32
2022-09-07T04:29:19.014Z,5.05
2022-09-07T04:32:04.457Z,4.50
2022-09-07T04:34:51.955Z,6.18
2022-09-07T04:40:22.949Z,6.22
2022-09-07T04:43:09.675Z,10.57
2022-09-07T04:45:55.709Z,6.32
2022-09-07T04:48:41.040Z,5.88
2022-09-07T04:51:29.330Z,5.28
2022-09-07T04:54:14.815Z,6.47
2022-09-07T04:57:00.393Z,6.90
2022-09-07T04:59:45.713Z,7.43
2022-09-07T05:02:31.056Z,5.75
2022-09-07T05:05:16.693Z,7.03
2022-09-07T05:08:02.141Z,8.50
2022-09-07T05:10:56.858Z,5.65
2022-09-07T05:13:43.017Z,5.97
2022-09-07T05:16:30.365Z,9.73
2022-09-07T05:19:16.473Z,6.88
2022-09-07T05:22:02.401Z,11.63
2022-09-07T05:24:48.217Z,10.45
2022-09-07T05:27:33.767Z,10.75
2022-09-07T05:36:30.466Z,13.27
2022-09-07T05:39:16.230Z,17.75
2022-09-07T05:42:01.643Z,14.43
2022-09-07T05:44:46.968Z,18.52
2022-09-07T05:47:32.390Z,27.90
2022-09-07T05:50:17.876Z,20.65
2022-09-07T05:53:03.180Z,18.10
2022-09-07T05:55:51.715Z,17.13
2022-09-07T05:58:37.576Z,24.92
2022-09-07T06:01:23.213Z,21.67
2022-09-07T06:04:08.776Z,17.83
2022-09-07T06:13:05.398Z,20.05
2022-09-07T06:15:50.741Z,30.80
2022-09-07T06:18:39.347Z,21.85
2022-09-07T06:21:24.803Z,23.83
2022-09-07T06:24:10.228Z,18.83
2022-09-07T06:26:55.669Z,14.20
2022-09-07T06:29:40.980Z,15.57
2022-09-07T06:35:27.767Z,14.55
2022-09-07T06:38:13.329Z,12.10
2022-09-07T06:44:08.036Z,15.57
2022-09-07T06:49:46.997Z,19.77
2022-09-07T06:55:44.908Z,16.75
2022-09-07T06:58:30.500Z,20.00
2022-09-07T07:01:20.316Z,17.55
2022-09-07T07:04:05.823Z,19.15
2022-09-07T07:06:51.147Z,18.85
2022-09-07T07:09:36.474Z,19.75
2022-09-07T07:15:06.730Z,19.88
2022-09-07T07:17:58.974Z,18.13
2022-09-07T07:20:47.845Z,20.88
2022-09-07T07:23:34.480Z,25.33
2022-09-07T07:26:23.760Z,26.60
2022-09-07T07:29:08.875Z,18.17
2022-09-07T07:31:54.474Z,20.60
2022-09-07T07:34:39.792Z,20.67
2022-09-07T07:37:28.181Z,15.65
2022-09-07T07:40:15.798Z,18.42
2022-09-07T07:43:03.065Z,15.13
2022-09-07T07:45:55.730Z,14.85
2022-09-07T07:48:41.958Z,17.45
2022-09-07T07:51:27.612Z,14.35
2022-09-07T07:54:12.759Z,13.88
2022-09-07T07:56:58.080Z,16.98
2022-09-07T07:59:43.360Z,12.73
2022-09-07T08:02:28.751Z,12.95
2022-09-07T08:05:14.253Z,12.75
2022-09-07T08:07:59.489Z,12.30
2022-09-07T08:10:47.319Z,13.85
2022-09-07T08:13:33.822Z,12.95
2022-09-07T08:16:19.586Z,9.68
2022-09-07T08:19:05.813Z,11.23
2022-09-07T08:21:51.192Z,10.13
2022-09-07T08:24:36.666Z,10.27
2022-09-07T08:27:22.012Z,12.00
2022-09-07T08:30:08.583Z,11.13
2022-09-07T08:32:53.867Z,10.15
2022-09-07T08:35:39.197Z,9.75
2022-09-07T08:38:25.336Z,10.23
2022-09-07T08:41:48.866Z,13.95
2022-09-07T08:44:37.572Z,11.65
2022-09-07T08:47:38.970Z,12.68
2022-09-07T08:50:29.561Z,9.75
2022-09-07T08:53:17.860Z,13.57
2022-09-07T08:56:12.275Z,8.48
2022-09-07T08:59:00.432Z,8.95
2022-09-07T09:02:27.053Z,11.38
2022-09-07T09:08:06.946Z,9.73
2022-09-07T09:11:05.983Z,10.13
2022-09-07T09:17:30.758Z,7.60
2022-09-07T09:20:24.021Z,7.68
2022-09-07T09:23:13.117Z,8.25
2022-09-07T09:26:13.380Z,8.60
2022-09-07T09:29:11.453Z,10.05
2022-09-07T09:31:57.041Z,7.38
2022-09-07T09:35:00.668Z,7.05
2022-09-07T09:37:46.536Z,7.80
2022-09-07T09:40:37.079Z,7.32
2022-09-07T09:43:26.009Z,7.22
2022-09-07T09:46:33.463Z,8.63
2022-09-07T09:49:23.909Z,12.40
2022-09-07T09:52:41.791Z,11.48
2022-09-07T09:55:35.854Z,15.55
2022-09-07T10:04:44.976Z,14.82
2022-09-07T10:07:31.917Z,10.48
2022-09-07T10:10:36.425Z,9.70
2022-09-07T10:13:26.890Z,8.20
2022-09-07T10:16:12.543Z,7.88
2022-09-07T10:18:59.520Z,8.23
2022-09-07T10:21:45.579Z,8.52
2022-09-07T10:24:39.662Z,10.38
2022-09-07T10:27:34.841Z,7.05
2022-09-07T10:30:20.369Z,9.07
2022-09-07T10:33:18.806Z,7.72
2022-09-07T10:36:24.542Z,8.60
2022-09-07T10:39:35.781Z,8.05
2022-09-07T10:42:24.260Z,6.28
2022-09-07T10:45:31.622Z,6.47
2022-09-07T10:48:32.663Z,6.82
2022-09-07T10:51:24.502Z,8.88
2022-09-07T10:54:42.267Z,10.52
2022-09-07T10:58:05.235Z,7.75
2022-09-07T11:00:53.928Z,5.47
2022-09-07T11:03:48.956Z,8.48
2022-09-07T11:06:49.155Z,6.35
2022-09-07T11:10:05.532Z,5.47
2022-09-07T11:12:54.133Z,5.95
2022-09-07T11:16:05.607Z,7.13
2022-09-07T11:19:35.008Z,6.47
2022-09-07T11:22:25.527Z,6.22
2022-09-07T11:25:31.359Z,6.28
2022-09-07T11:28:23.246Z,7.80
2022-09-07T11:31:22.095Z,6.95
2022-09-07T11:34:25.210Z,6.80
2022-09-07T11:37:18.889Z,7.05
2022-09-07T11:40:14.285Z,6.05
2022-09-07T11:43:18.284Z,6.07
2022-09-07T11:46:10.196Z,8.45
2022-09-07T11:48:56.700Z,6.50
2022-09-07T11:51:54.092Z,6.13
2022-09-07T11:54:42.587Z,6.30
2022-09-07T11:57:49.002Z,7.00
2022-09-07T12:01:05.408Z,6.15
2022-09-07T12:04:03.026Z,5.90
2022-09-07T12:07:18.118Z,6.25
2022-09-07T12:10:39.082Z,5.72
2022-09-07T12:13:55.543Z,6.65
2022-09-07T12:16:58.181Z,6.60
2022-09-07T12:19:44.168Z,9.05
2022-09-07T12:22:29.734Z,7.53
2022-09-07T12:25:18.566Z,6.05
2022-09-07T12:28:04.178Z,8.48
2022-09-07T12:31:12.526Z,6.78
2022-09-07T12:34:33.515Z,7.28
2022-09-07T12:37:27.494Z,5.70
2022-09-07T12:40:32.359Z,6.93
2022-09-07T12:43:17.880Z,5.55
2022-09-07T12:46:03.724Z,6.10
2022-09-07T12:49:04.727Z,7.75
2022-09-07T12:52:16.759Z,6.80
2022-09-07T12:55:29.538Z,7.88
2022-09-07T12:58:31.503Z,5.32
2022-09-07T13:01:35.796Z,6.43
2022-09-07T13:04:41.168Z,4.63
2022-09-07T13:07:33.852Z,4.95
2022-09-07T13:10:35.995Z,5.07
2022-09-07T13:19:46.005Z,7.53
2022-09-07T13:22:31.417Z,6.25
2022-09-07T13:25:36.923Z,6.20
2022-09-07T13:28:23.749Z,7.00
2022-09-07T13:31:22.083Z,6.65
2022-09-07T13:34:36.104Z,5.88
2022-09-07T13:37:26.307Z,4.38
2022-09-07T13:40:18.015Z,8.27
2022-09-07T13:43:04.351Z,5.38
2022-09-07T13:45:55.580Z,6.67
2022-09-07T13:48:51.436Z,5.28
2022-09-07T13:51:47.738Z,6.15
2022-09-07T13:54:48.540Z,5.07
2022-09-07T13:58:05.365Z,6.28
2022-09-07T14:00:55.318Z,6.72
2022-09-07T14:03:57.184Z,6.47
2022-09-07T14:06:42.535Z,6.15
2022-09-07T14:09:27.793Z,5.75
2022-09-07T14:12:21.467Z,4.47
2022-09-07T14:15:19.206Z,5.90
2022-09-07T14:18:11.224Z,2.95
2022-09-07T14:20:58.693Z,3.83
2022-09-07T14:23:50.723Z,3.47
2022-09-07T14:26:36.007Z,5.00
2022-09-07T14:29:24.110Z,5.15
2022-09-07T14:32:13.336Z,4.13
2022-09-07T14:34:58.689Z,7.20
2022-09-07T14:37:46.178Z,3.80
2022-09-07T14:40:31.634Z,4.57
2022-09-07T14:43:33.044Z,3.67
2022-09-07T14:46:26.914Z,3.35
2022-09-07T14:49:20.580Z,5.80
2022-09-07T14:52:06.152Z,5.00
2022-09-07T14:54:52.924Z,6.45
2022-09-07T14:57:38.355Z,5.38
2022-09-07T15:00:31.439Z,5.03
2022-09-07T15:03:38.380Z,5.10
2022-09-07T15:09:40.452Z,5.35
2022-09-07T15:12:38.108Z,7.43
2022-09-07T15:15:33.862Z,5.75
2022-09-07T15:18:51.774Z,7.05
2022-09-07T15:21:37.687Z,7.13
2022-09-07T15:24:23.006Z,5.65
2022-09-07T15:27:27.138Z,5.35
2022-09-07T15:30:12.762Z,5.68
2022-09-07T15:32:58.299Z,6.38
2022-09-07T15:35:43.636Z,5.55
2022-09-07T15:41:34.842Z,7.40
2022-09-07T15:44:25.163Z,5.60
2022-09-07T15:50:17.554Z,5.70
2022-09-07T15:53:03.154Z,8.20
2022-09-07T15:55:54.898Z,9.38
2022-09-07T15:58:43.178Z,9.05
2022-09-07T16:04:33.714Z,6.43
2022-09-07T16:07:19.762Z,7.15
2022-09-07T16:10:06.098Z,9.10
2022-09-07T16:15:59.988Z,6.55
2022-09-07T16:18:47.271Z,6.88
2022-09-07T16:21:33.087Z,5.97
2022-09-07T16:24:18.395Z,6.68
2022-09-07T16:27:03.750Z,7.35
2022-09-07T16:29:49.254Z,5.63
2022-09-07T16:32:50.187Z,5.90
2022-09-07T16:35:35.842Z,6.57
2022-09-07T16:41:29.452Z,9.10
2022-09-07T16:44:15.055Z,8.75
2022-09-07T16:47:00.851Z,9.98
2022-09-07T16:49:46.478Z,7.95
2022-09-07T16:52:34.526Z,7.55
2022-09-07T16:55:19.966Z,8.63
2022-09-07T17:01:13.563Z,6.55
2022-09-07T17:03:59.510Z,5.93
2022-09-07T17:06:44.900Z,8.00
2022-09-07T17:09:30.579Z,6.97
2022-09-07T17:12:15.896Z,4.95
2022-09-07T17:15:01.191Z,4.97
2022-09-07T17:17:46.539Z,6.03
2022-09-07T17:20:32.006Z,6.50
2022-09-07T17:23:17.433Z,6.38
2022-09-07T17:26:13.881Z,7.07
2022-09-07T17:29:00.908Z,6.78
2022-09-07T17:34:52.107Z,5.28
2022-09-07T17:37:37.433Z,6.05
2022-09-07T17:40:23.577Z,6.15
2022-09-07T17:46:20.904Z,5.57
2022-09-07T17:49:10.213Z,10.27
2022-09-07T17:51:58.481Z,7.07
2022-09-07T17:54:44.028Z,7.05
2022-09-07T17:57:30.823Z,6.53
2022-09-07T18:00:16.234Z,7.60
2022-09-07T18:03:03.504Z,7.03
2022-09-07T18:08:38.619Z,6.28
2022-09-07T18:14:30.170Z,6.40
2022-09-07T18:17:15.388Z,5.43
2022-09-07T18:20:01.023Z,7.75
2022-09-07T18:22:46.424Z,5.63
2022-09-07T18:25:31.740Z,5.93
2022-09-07T18:31:25.055Z,7.28
2022-09-07T18:34:11.782Z,8.95
2022-09-07T18:36:58.562Z,9.95
2022-09-07T18:39:43.952Z,8.18
2022-09-07T18:42:30.290Z,8.73
2022-09-07T18:45:31.222Z,6.57
2022-09-07T18:48:16.425Z,6.20
2022-09-07T18:51:02.422Z,8.90
2022-09-07T18:53:47.992Z,7.97
2022-09-07T18:56:33.384Z,5.30
2022-09-07T18:59:18.669Z,7.30
2022-09-07T19:02:06.357Z,7.50
2022-09-07T19:07:59.753Z,7.90
2022-09-07T19:10:46.480Z,5.88
2022-09-07T19:13:31.917Z,6.33
2022-09-07T19:16:19.458Z,7.10
2022-09-07T19:19:06.958Z,9.95
2022-09-07T19:24:38.452Z,6.35
2022-09-07T19:27:23.601Z,9.02
2022-09-07T19:30:09.711Z,7.32
2022-09-07T19:32:54.956Z,7.90
2022-09-07T19:35:40.134Z,7.47
2022-09-07T19:38:25.459Z,6.72
2022-09-07T19:41:14.096Z,8.70
2022-09-07T19:44:00.255Z,8.80
2022-09-07T19:46:45.926Z,9.90
2022-09-07T19:49:31.818Z,7.38
2022-09-07T19:52:17.188Z,9.75
2022-09-07T19:55:03.998Z,6.55
2022-09-07T19:57:51.331Z,6.75
2022-09-07T20:00:39.223Z,6.47
2022-09-07T20:03:24.794Z,9.30
2022-09-07T20:06:12.810Z,7.07
2022-09-07T20:09:00.113Z,6.88
2022-09-07T20:11:47.499Z,5.05
2022-09-07T20:14:33.216Z,8.55
2022-09-07T20:17:18.527Z,5.15
2022-09-07T20:20:05.435Z,6.10
2022-09-07T20:22:51.321Z,5.35
2022-09-07T20:25:36.767Z,6.95
2022-09-07T20:28:21.965Z,7.95
2022-09-07T20:31:10.296Z,5.43
2022-09-07T20:33:56.894Z,7.22
2022-09-07T20:36:42.227Z,7.15
2022-09-07T20:39:27.556Z,7.18
2022-09-07T20:42:13.086Z,6.97
2022-09-07T20:44:58.278Z,8.18
2022-09-07T20:47:44.769Z,7.15
2022-09-07T20:50:30.264Z,6.20
2022-09-07T20:53:16.872Z,8.15
2022-09-07T20:56:03.685Z,7.70
2022-09-07T20:58:53.657Z,6.80
2022-09-07T21:01:39.214Z,8.23
2022-09-07T21:04:26.422Z,7.32
2022-09-07T21:07:12.110Z,5.65
2022-09-07T21:09:57.339Z,9.43
2022-09-07T21:12:42.956Z,9.60
2022-09-07T21:15:29.334Z,5.80
2022-09-07T21:18:16.506Z,9.65
2022-09-07T21:21:20.093Z,7.68
2022-09-07T21:24:07.132Z,9.70
2022-09-07T21:26:52.680Z,8.20
2022-09-07T21:29:37.934Z,9.40
2022-09-07T21:32:23.570Z,7.95
2022-09-07T21:35:10.177Z,7.15
2022-09-07T21:37:55.915Z,8.07
2022-09-07T21:40:41.518Z,10.98
2022-09-07T21:43:27.319Z,7.65
2022-09-07T21:46:15.980Z,7.53
2022-09-07T21:49:02.125Z,11.40
2022-09-07T21:51:47.703Z,7.28
2022-09-07T21:54:33.202Z,8.38
2022-09-07T21:57:18.603Z,7.53
2022-09-07T22:00:05.568Z,11.27
2022-09-07T22:02:53.927Z,11.77
2022-09-07T22:05:39.651Z,7.40
2022-09-07T22:08:24.970Z,6.78
2022-09-07T22:11:13.578Z,6.30
2022-09-07T22:14:01.946Z,8.13
2022-09-07T22:16:47.629Z,6.32
2022-09-07T22:19:33.159Z,7.85
2022-09-07T22:22:18.836Z,10.30
2022-09-07T22:25:05.407Z,7.50
2022-09-07T22:27:50.886Z,10.20
2022-09-07T22:30:36.209Z,6.55
2022-09-07T22:33:22.027Z,7.25
2022-09-07T22:36:12.640Z,6.15
2022-09-07T22:39:00.830Z,6.75
2022-09-07T22:41:47.471Z,8.65
2022-09-07T22:47:36.123Z,7.22
2022-09-07T22:50:21.596Z,6.82
2022-09-07T22:53:06.883Z,8.10
2022-09-07T22:55:52.562Z,9.38
2022-09-07T22:58:38.624Z,4.97
2022-09-07T23:01:24.756Z,6.78
2022-09-07T23:04:11.175Z,5.07
2022-09-07T23:06:56.920Z,6.15
2022-09-07T23:09:42.281Z,8.05
2022-09-07T23:12:28.025Z,6.95
2022-09-07T23:15:13.226Z,4.70
2022-09-07T23:17:58.872Z,6.32
2022-09-07T23:20:44.469Z,4.55
2022-09-07T23:23:30.705Z,9.02
2022-09-07T23:26:15.913Z,7.53
2022-09-07T23:29:04.528Z,6.85
2022-09-07T23:31:50.057Z,7.60
2022-09-07T23:34:35.730Z,7.53
2022-09-07T23:37:21.111Z,7.50
2022-09-07T23:40:08.612Z,7.10
2022-09-07T23:42:54.220Z,6.40
2022-09-07T23:45:39.681Z,5.07
2022-09-07T23:48:25.731Z,6.38
2022-09-07T23:51:12.316Z,5.57
2022-09-07T23:53:57.676Z,6.32
2022-09-07T23:56:43.248Z,7.63
2022-09-07T23:59:28.432Z,5.35
